< < Back
Terminal Aerodrome Forecast


Current Version              Previous Versions:   1  2  3  4  5  6  7  8  9  

Terminal Aerodrome Forecast

349
FTUS42 KTAE 241700
TAFDHN
TAF
KDHN 241727Z 2418/2518 27009KT P6SM SCT025
     FM242100 31007KT P6SM SCT025 BKN080
     FM250300 33011KT P6SM OVC050
     FM251400 VRB03KT 4SM -RA OVC012=



Latest METAR

619
SAUS70 KWBC 252200 RRF
MTRDHN
METAR KDHN 252153Z 02003KT 10SM -RA BKN042 OVC100 10/09 A3008 RMK AO2
SLP184 P0004 T01000089


USA.gov is the U.S. government's official web portal to all federal, state and local government web resources and services.